sensor_id;sensor_type;location;lat;lon;timestamp;temperature;humidity
45104;DHT22;30865;51.288;4.572;2023-05-07T00:00:46;14.90;99.90
45104;DHT22;30865;51.288;4.572;2023-05-07T00:03:12;14.80;99.90
45104;DHT22;30865;51.288;4.572;2023-05-07T00:05:39;14.80;99.90
45104;DHT22;30865;51.288;4.572;2023-05-07T00:08:12;14.80;99.90
45104;DHT22;30865;51.288;4.572;2023-05-07T00:10:38;14.80;99.90
45104;DHT22;30865;51.288;4.572;2023-05-07T00:13:03;14.80;99.90
45104;DHT22;30865;51.288;4.572;2023-05-07T00:15:38;14.70;99.90
45104;DHT22;30865;51.288;4.572;2023-05-07T00:18:04;14.70;99.90
45104;DHT22;30865;51.288;4.572;2023-05-07T00:20:29;14.70;99.90
45104;DHT22;30865;51.288;4.572;2023-05-07T00:22:55;14.70;99.90
45104;DHT22;30865;51.288;4.572;2023-05-07T00:25:20;14.60;99.90
45104;DHT22;30865;51.288;4.572;2023-05-07T00:27:46;14.60;99.90
45104;DHT22;30865;51.288;4.572;2023-05-07T00:30:12;14.60;99.90
45104;DHT22;30865;51.288;4.572;2023-05-07T00:32:38;14.60;99.90
45104;DHT22;30865;51.288;4.572;2023-05-07T00:35:04;14.60;99.90
45104;DHT22;30865;51.288;4.572;2023-05-07T00:37:30;14.50;99.90
45104;DHT22;30865;51.288;4.572;2023-05-07T00:39:56;14.50;99.90
45104;DHT22;30865;51.288;4.572;2023-05-07T00:42:22;14.40;99.90
45104;DHT22;30865;51.288;4.572;2023-05-07T00:44:47;14.40;99.90
45104;DHT22;30865;51.288;4.572;2023-05-07T00:47:13;14.30;99.90
45104;DHT22;30865;51.288;4.572;2023-05-07T00:49:41;14.30;99.90
45104;DHT22;30865;51.288;4.572;2023-05-07T00:52:09;14.30;99.90
45104;DHT22;30865;51.288;4.572;2023-05-07T00:54:34;14.20;99.90
45104;DHT22;30865;51.288;4.572;2023-05-07T00:57:02;14.30;99.90
45104;DHT22;30865;51.288;4.572;2023-05-07T00:59:28;14.30;99.90
45104;DHT22;30865;51.288;4.572;2023-05-07T01:01:53;14.20;99.90
45104;DHT22;30865;51.288;4.572;2023-05-07T01:04:19;14.30;99.90
45104;DHT22;30865;51.288;4.572;2023-05-07T01:06:45;14.20;99.90
45104;DHT22;30865;51.288;4.572;2023-05-07T01:09:12;14.10;99.90
45104;DHT22;30865;51.288;4.572;2023-05-07T01:11:38;14.10;99.90
45104;DHT22;30865;51.288;4.572;2023-05-07T01:14:04;14.10;99.90
45104;DHT22;30865;51.288;4.572;2023-05-07T01:16:30;14.00;99.90
45104;DHT22;30865;51.288;4.572;2023-05-07T01:18:56;14.00;99.90
45104;DHT22;30865;51.288;4.572;2023-05-07T01:21:25;14.00;99.90
45104;DHT22;30865;51.288;4.572;2023-05-07T01:23:52;14.00;99.90
45104;DHT22;30865;51.288;4.572;2023-05-07T01:26:18;14.00;99.90
45104;DHT22;30865;51.288;4.572;2023-05-07T01:28:45;14.00;99.90
45104;DHT22;30865;51.288;4.572;2023-05-07T01:31:12;14.00;99.90
45104;DHT22;30865;51.288;4.572;2023-05-07T01:33:40;14.00;99.90
45104;DHT22;30865;51.288;4.572;2023-05-07T01:36:07;14.00;99.90
45104;DHT22;30865;51.288;4.572;2023-05-07T01:38:35;13.90;99.90
45104;DHT22;30865;51.288;4.572;2023-05-07T01:41:01;13.90;99.90
45104;DHT22;30865;51.288;4.572;2023-05-07T01:43:28;13.80;99.90
45104;DHT22;30865;51.288;4.572;2023-05-07T01:45:55;13.80;99.90
45104;DHT22;30865;51.288;4.572;2023-05-07T01:48:21;13.80;99.90
45104;DHT22;30865;51.288;4.572;2023-05-07T01:50:47;13.80;99.90
45104;DHT22;30865;51.288;4.572;2023-05-07T01:53:13;13.80;99.90
45104;DHT22;30865;51.288;4.572;2023-05-07T01:55:38;13.80;99.90
45104;DHT22;30865;51.288;4.572;2023-05-07T01:58:05;13.80;99.90
45104;DHT22;30865;51.288;4.572;2023-05-07T02:00:31;13.80;99.90
45104;DHT22;30865;51.288;4.572;2023-05-07T02:02:57;13.80;99.90
45104;DHT22;30865;51.288;4.572;2023-05-07T02:05:22;13.80;99.90
45104;DHT22;30865;51.288;4.572;2023-05-07T02:07:48;13.70;99.90
45104;DHT22;30865;51.288;4.572;2023-05-07T02:10:13;13.60;99.90
45104;DHT22;30865;51.288;4.572;2023-05-07T02:12:39;13.70;99.90
45104;DHT22;30865;51.288;4.572;2023-05-07T02:15:05;13.60;99.90
45104;DHT22;30865;51.288;4.572;2023-05-07T02:17:31;13.50;99.90
45104;DHT22;30865;51.288;4.572;2023-05-07T02:19:59;13.50;99.90
45104;DHT22;30865;51.288;4.572;2023-05-07T02:22:25;13.60;99.90
45104;DHT22;30865;51.288;4.572;2023-05-07T02:24:51;13.60;99.90
45104;DHT22;30865;51.288;4.572;2023-05-07T02:27:16;13.50;99.90
45104;DHT22;30865;51.288;4.572;2023-05-07T02:29:42;13.50;99.90
45104;DHT22;30865;51.288;4.572;2023-05-07T02:32:10;13.50;99.90
45104;DHT22;30865;51.288;4.572;2023-05-07T02:34:35;13.50;99.90
45104;DHT22;30865;51.288;4.572;2023-05-07T02:37:01;13.50;99.90
45104;DHT22;30865;51.288;4.572;2023-05-07T02:39:26;13.50;99.90
45104;DHT22;30865;51.288;4.572;2023-05-07T02:41:52;13.40;99.90
45104;DHT22;30865;51.288;4.572;2023-05-07T02:44:17;13.40;99.90
45104;DHT22;30865;51.288;4.572;2023-05-07T02:46:43;13.30;99.90
45104;DHT22;30865;51.288;4.572;2023-05-07T02:49:08;13.30;99.90
45104;DHT22;30865;51.288;4.572;2023-05-07T02:51:34;13.30;99.90
45104;DHT22;30865;51.288;4.572;2023-05-07T02:53:59;13.20;99.90
45104;DHT22;30865;51.288;4.572;2023-05-07T02:56:26;13.20;99.90
45104;DHT22;30865;51.288;4.572;2023-05-07T02:58:52;13.30;99.90
45104;DHT22;30865;51.288;4.572;2023-05-07T03:01:17;13.20;99.90
45104;DHT22;30865;51.288;4.572;2023-05-07T03:03:43;13.20;99.90
45104;DHT22;30865;51.288;4.572;2023-05-07T03:06:09;13.10;99.90
45104;DHT22;30865;51.288;4.572;2023-05-07T03:08:35;13.10;99.90
45104;DHT22;30865;51.288;4.572;2023-05-07T03:11:02;13.00;99.90
45104;DHT22;30865;51.288;4.572;2023-05-07T03:13:27;12.90;99.90
45104;DHT22;30865;51.288;4.572;2023-05-07T03:15:52;12.80;99.90
45104;DHT22;30865;51.288;4.572;2023-05-07T03:18:18;12.80;99.90
45104;DHT22;30865;51.288;4.572;2023-05-07T03:20:43;12.70;99.90
45104;DHT22;30865;51.288;4.572;2023-05-07T03:23:09;12.80;99.90
45104;DHT22;30865;51.288;4.572;2023-05-07T03:25:34;12.80;99.90
45104;DHT22;30865;51.288;4.572;2023-05-07T03:28:00;12.80;99.90
45104;DHT22;30865;51.288;4.572;2023-05-07T03:30:25;12.80;99.90
45104;DHT22;30865;51.288;4.572;2023-05-07T03:32:51;12.80;99.90
45104;DHT22;30865;51.288;4.572;2023-05-07T03:35:19;12.80;99.90
45104;DHT22;30865;51.288;4.572;2023-05-07T03:37:45;12.80;99.90
45104;DHT22;30865;51.288;4.572;2023-05-07T03:40:11;12.70;99.90
45104;DHT22;30865;51.288;4.572;2023-05-07T03:42:37;12.70;99.90
45104;DHT22;30865;51.288;4.572;2023-05-07T03:45:03;12.60;99.90
45104;DHT22;30865;51.288;4.572;2023-05-07T03:47:28;12.60;99.90
45104;DHT22;30865;51.288;4.572;2023-05-07T03:49:54;12.60;99.90
45104;DHT22;30865;51.288;4.572;2023-05-07T03:52:20;12.60;99.90
45104;DHT22;30865;51.288;4.572;2023-05-07T03:54:49;12.60;99.90
45104;DHT22;30865;51.288;4.572;2023-05-07T03:57:15;12.70;99.90
45104;DHT22;30865;51.288;4.572;2023-05-07T03:59:41;12.60;99.90
45104;DHT22;30865;51.288;4.572;2023-05-07T04:02:06;12.60;99.90
45104;DHT22;30865;51.288;4.572;2023-05-07T04:04:31;12.50;99.90
45104;DHT22;30865;51.288;4.572;2023-05-07T04:06:58;12.60;99.90
45104;DHT22;30865;51.288;4.572;2023-05-07T04:09:24;12.50;99.90
45104;DHT22;30865;51.288;4.572;2023-05-07T04:11:50;12.50;99.90
45104;DHT22;30865;51.288;4.572;2023-05-07T04:14:16;12.40;99.90
45104;DHT22;30865;51.288;4.572;2023-05-07T04:16:41;12.40;99.90
45104;DHT22;30865;51.288;4.572;2023-05-07T04:19:07;12.40;99.90
45104;DHT22;30865;51.288;4.572;2023-05-07T04:21:32;12.50;99.90
45104;DHT22;30865;51.288;4.572;2023-05-07T04:23:58;12.60;99.90
45104;DHT22;30865;51.288;4.572;2023-05-07T04:26:23;12.60;99.90
45104;DHT22;30865;51.288;4.572;2023-05-07T04:28:49;12.60;99.90
45104;DHT22;30865;51.288;4.572;2023-05-07T04:31:15;12.70;99.90
45104;DHT22;30865;51.288;4.572;2023-05-07T04:33:41;12.80;99.90
45104;DHT22;30865;51.288;4.572;2023-05-07T04:36:06;12.80;99.90
45104;DHT22;30865;51.288;4.572;2023-05-07T04:38:32;12.80;99.90
45104;DHT22;30865;51.288;4.572;2023-05-07T04:41:03;12.90;99.90
45104;DHT22;30865;51.288;4.572;2023-05-07T04:43:29;12.90;99.90
45104;DHT22;30865;51.288;4.572;2023-05-07T04:45:54;12.90;99.90
45104;DHT22;30865;51.288;4.572;2023-05-07T04:48:20;12.90;99.90
45104;DHT22;30865;51.288;4.572;2023-05-07T04:50:52;12.90;99.90
45104;DHT22;30865;51.288;4.572;2023-05-07T04:53:18;12.90;99.90
45104;DHT22;30865;51.288;4.572;2023-05-07T04:55:44;13.00;99.90
45104;DHT22;30865;51.288;4.572;2023-05-07T04:58:10;13.00;99.90
45104;DHT22;30865;51.288;4.572;2023-05-07T05:00:36;13.00;99.90
45104;DHT22;30865;51.288;4.572;2023-05-07T05:03:01;13.00;99.90
45104;DHT22;30865;51.288;4.572;2023-05-07T05:05:27;13.00;99.90
45104;DHT22;30865;51.288;4.572;2023-05-07T05:07:52;13.00;99.90
45104;DHT22;30865;51.288;4.572;2023-05-07T05:10:18;12.90;99.90
45104;DHT22;30865;51.288;4.572;2023-05-07T05:12:43;12.80;99.90
45104;DHT22;30865;51.288;4.572;2023-05-07T05:15:11;12.80;99.90
45104;DHT22;30865;51.288;4.572;2023-05-07T05:17:38;12.80;99.90
45104;DHT22;30865;51.288;4.572;2023-05-07T05:20:04;12.80;99.90
45104;DHT22;30865;51.288;4.572;2023-05-07T05:22:29;12.90;99.90
45104;DHT22;30865;51.288;4.572;2023-05-07T05:24:56;13.00;99.90
45104;DHT22;30865;51.288;4.572;2023-05-07T05:27:22;13.00;99.90
45104;DHT22;30865;51.288;4.572;2023-05-07T05:29:47;13.20;99.90
45104;DHT22;30865;51.288;4.572;2023-05-07T05:32:18;13.20;99.90
45104;DHT22;30865;51.288;4.572;2023-05-07T05:34:43;13.30;99.90
45104;DHT22;30865;51.288;4.572;2023-05-07T05:37:09;13.50;99.90
45104;DHT22;30865;51.288;4.572;2023-05-07T05:39:34;13.60;99.90
45104;DHT22;30865;51.288;4.572;2023-05-07T05:42:00;13.60;99.90
45104;DHT22;30865;51.288;4.572;2023-05-07T05:44:25;13.60;99.90
45104;DHT22;30865;51.288;4.572;2023-05-07T05:46:53;13.80;99.90
45104;DHT22;30865;51.288;4.572;2023-05-07T05:49:24;14.00;99.90
45104;DHT22;30865;51.288;4.572;2023-05-07T05:51:50;14.20;99.90
45104;DHT22;30865;51.288;4.572;2023-05-07T05:54:15;14.30;99.90
45104;DHT22;30865;51.288;4.572;2023-05-07T05:56:41;14.30;99.90
45104;DHT22;30865;51.288;4.572;2023-05-07T05:59:07;14.30;99.90
45104;DHT22;30865;51.288;4.572;2023-05-07T06:01:32;14.30;99.90
45104;DHT22;30865;51.288;4.572;2023-05-07T06:03:58;14.40;99.90
45104;DHT22;30865;51.288;4.572;2023-05-07T06:06:23;14.50;99.90
45104;DHT22;30865;51.288;4.572;2023-05-07T06:08:49;14.70;99.90
45104;DHT22;30865;51.288;4.572;2023-05-07T06:11:14;14.90;99.90
45104;DHT22;30865;51.288;4.572;2023-05-07T06:13:40;15.10;99.90
45104;DHT22;30865;51.288;4.572;2023-05-07T06:16:06;15.20;99.90
45104;DHT22;30865;51.288;4.572;2023-05-07T06:18:31;15.10;99.90
45104;DHT22;30865;51.288;4.572;2023-05-07T06:20:57;15.30;99.90
45104;DHT22;30865;51.288;4.572;2023-05-07T06:23:22;15.60;99.90
45104;DHT22;30865;51.288;4.572;2023-05-07T06:25:49;15.50;99.90
45104;DHT22;30865;51.288;4.572;2023-05-07T06:28:18;15.40;99.90
45104;DHT22;30865;51.288;4.572;2023-05-07T06:30:43;15.10;99.90
45104;DHT22;30865;51.288;4.572;2023-05-07T06:33:09;15.20;99.90
45104;DHT22;30865;51.288;4.572;2023-05-07T06:35:34;15.30;99.90
45104;DHT22;30865;51.288;4.572;2023-05-07T06:38:00;15.60;99.90
45104;DHT22;30865;51.288;4.572;2023-05-07T06:40:26;15.40;99.90
45104;DHT22;30865;51.288;4.572;2023-05-07T06:42:51;15.40;99.90
45104;DHT22;30865;51.288;4.572;2023-05-07T06:45:17;15.40;99.90
45104;DHT22;30865;51.288;4.572;2023-05-07T06:47:43;15.40;99.90
45104;DHT22;30865;51.288;4.572;2023-05-07T06:50:08;15.60;99.90
45104;DHT22;30865;51.288;4.572;2023-05-07T06:52:35;15.80;99.90
45104;DHT22;30865;51.288;4.572;2023-05-07T06:55:00;15.90;99.90
45104;DHT22;30865;51.288;4.572;2023-05-07T06:57:27;15.70;99.90
45104;DHT22;30865;51.288;4.572;2023-05-07T06:59:52;15.90;99.90
45104;DHT22;30865;51.288;4.572;2023-05-07T07:02:18;16.20;99.90
45104;DHT22;30865;51.288;4.572;2023-05-07T07:04:43;16.50;99.90
45104;DHT22;30865;51.288;4.572;2023-05-07T07:07:10;16.50;99.90
45104;DHT22;30865;51.288;4.572;2023-05-07T07:09:35;16.80;99.90
45104;DHT22;30865;51.288;4.572;2023-05-07T07:12:01;17.00;99.90
45104;DHT22;30865;51.288;4.572;2023-05-07T07:14:26;17.00;99.90
45104;DHT22;30865;51.288;4.572;2023-05-07T07:16:52;17.20;99.90
45104;DHT22;30865;51.288;4.572;2023-05-07T07:19:17;17.20;99.90
45104;DHT22;30865;51.288;4.572;2023-05-07T07:21:43;17.30;99.90
45104;DHT22;30865;51.288;4.572;2023-05-07T07:24:10;17.50;99.90
45104;DHT22;30865;51.288;4.572;2023-05-07T07:26:35;17.80;99.90
45104;DHT22;30865;51.288;4.572;2023-05-07T07:29:01;17.90;99.90
45104;DHT22;30865;51.288;4.572;2023-05-07T07:31:26;18.10;99.90
45104;DHT22;30865;51.288;4.572;2023-05-07T07:33:51;18.30;99.90
45104;DHT22;30865;51.288;4.572;2023-05-07T07:36:17;18.80;99.90
45104;DHT22;30865;51.288;4.572;2023-05-07T07:38:42;19.30;99.90
45104;DHT22;30865;51.288;4.572;2023-05-07T07:41:08;19.30;99.90
45104;DHT22;30865;51.288;4.572;2023-05-07T07:43:34;19.50;99.90
45104;DHT22;30865;51.288;4.572;2023-05-07T07:46:10;19.40;99.90
45104;DHT22;30865;51.288;4.572;2023-05-07T07:48:35;19.50;99.90
45104;DHT22;30865;51.288;4.572;2023-05-07T07:51:01;19.70;99.90
45104;DHT22;30865;51.288;4.572;2023-05-07T07:53:26;20.00;99.90
45104;DHT22;30865;51.288;4.572;2023-05-07T07:55:52;20.30;99.90
45104;DHT22;30865;51.288;4.572;2023-05-07T07:58:17;20.40;99.90
45104;DHT22;30865;51.288;4.572;2023-05-07T08:00:43;20.90;99.80
45104;DHT22;30865;51.288;4.572;2023-05-07T08:03:09;20.60;99.90
45104;DHT22;30865;51.288;4.572;2023-05-07T08:05:35;21.00;99.50
45104;DHT22;30865;51.288;4.572;2023-05-07T08:08:01;21.30;97.60
45104;DHT22;30865;51.288;4.572;2023-05-07T08:10:27;21.40;96.70
45104;DHT22;30865;51.288;4.572;2023-05-07T08:12:52;21.60;95.80
45104;DHT22;30865;51.288;4.572;2023-05-07T08:15:18;21.30;96.10
45104;DHT22;30865;51.288;4.572;2023-05-07T08:17:43;21.30;96.80
45104;DHT22;30865;51.288;4.572;2023-05-07T08:20:09;21.50;95.80
45104;DHT22;30865;51.288;4.572;2023-05-07T08:22:35;21.60;95.50
45104;DHT22;30865;51.288;4.572;2023-05-07T08:25:01;21.60;95.20
45104;DHT22;30865;51.288;4.572;2023-05-07T08:27:27;21.70;94.90
45104;DHT22;30865;51.288;4.572;2023-05-07T08:29:53;21.70;94.90
45104;DHT22;30865;51.288;4.572;2023-05-07T08:32:18;21.50;95.50
45104;DHT22;30865;51.288;4.572;2023-05-07T08:34:44;21.40;95.20
45104;DHT22;30865;51.288;4.572;2023-05-07T08:37:10;21.60;95.80
45104;DHT22;30865;51.288;4.572;2023-05-07T08:39:35;21.90;94.50
45104;DHT22;30865;51.288;4.572;2023-05-07T08:42:01;22.20;93.80
45104;DHT22;30865;51.288;4.572;2023-05-07T08:44:33;22.00;93.50
45104;DHT22;30865;51.288;4.572;2023-05-07T08:47:00;21.90;94.00
45104;DHT22;30865;51.288;4.572;2023-05-07T08:49:26;21.90;93.90
45104;DHT22;30865;51.288;4.572;2023-05-07T08:51:52;21.80;94.40
45104;DHT22;30865;51.288;4.572;2023-05-07T08:54:18;21.70;94.40
45104;DHT22;30865;51.288;4.572;2023-05-07T08:56:45;21.70;94.40
45104;DHT22;30865;51.288;4.572;2023-05-07T08:59:10;21.90;94.60
45104;DHT22;30865;51.288;4.572;2023-05-07T09:01:36;22.20;93.50
45104;DHT22;30865;51.288;4.572;2023-05-07T09:04:02;22.40;92.90
45104;DHT22;30865;51.288;4.572;2023-05-07T09:06:27;22.80;91.80
45104;DHT22;30865;51.288;4.572;2023-05-07T09:08:54;22.90;91.20
45104;DHT22;30865;51.288;4.572;2023-05-07T09:11:21;22.60;91.40
45104;DHT22;30865;51.288;4.572;2023-05-07T09:13:47;22.80;91.10
45104;DHT22;30865;51.288;4.572;2023-05-07T09:16:13;22.90;90.90
45104;DHT22;30865;51.288;4.572;2023-05-07T09:18:43;23.10;90.30
45104;DHT22;30865;51.288;4.572;2023-05-07T09:21:15;23.20;89.70
45104;DHT22;30865;51.288;4.572;2023-05-07T09:23:42;23.10;87.00
45104;DHT22;30865;51.288;4.572;2023-05-07T09:26:08;23.10;86.50
45104;DHT22;30865;51.288;4.572;2023-05-07T09:28:39;23.10;88.00
45104;DHT22;30865;51.288;4.572;2023-05-07T09:31:05;23.30;87.30
45104;DHT22;30865;51.288;4.572;2023-05-07T09:33:31;23.60;85.50
45104;DHT22;30865;51.288;4.572;2023-05-07T09:36:08;23.20;85.70
45104;DHT22;30865;51.288;4.572;2023-05-07T09:38:35;23.00;87.70
45104;DHT22;30865;51.288;4.572;2023-05-07T09:41:11;23.00;87.00
45104;DHT22;30865;51.288;4.572;2023-05-07T09:43:38;23.30;86.70
45104;DHT22;30865;51.288;4.572;2023-05-07T09:46:12;23.40;85.20
45104;DHT22;30865;51.288;4.572;2023-05-07T09:48:39;23.40;83.90
45104;DHT22;30865;51.288;4.572;2023-05-07T09:53:36;23.80;80.70
45104;DHT22;30865;51.288;4.572;2023-05-07T09:56:02;23.80;79.10
45104;DHT22;30865;51.288;4.572;2023-05-07T09:58:28;24.00;77.40
45104;DHT22;30865;51.288;4.572;2023-05-07T10:00:54;24.20;75.70
45104;DHT22;30865;51.288;4.572;2023-05-07T10:03:22;24.00;75.80
45104;DHT22;30865;51.288;4.572;2023-05-07T10:05:48;24.10;75.80
45104;DHT22;30865;51.288;4.572;2023-05-07T10:08:14;23.90;76.10
45104;DHT22;30865;51.288;4.572;2023-05-07T10:10:42;23.90;74.60
45104;DHT22;30865;51.288;4.572;2023-05-07T10:13:08;24.30;74.10
45104;DHT22;30865;51.288;4.572;2023-05-07T10:15:36;24.20;74.80
45104;DHT22;30865;51.288;4.572;2023-05-07T10:18:03;24.50;72.60
45104;DHT22;30865;51.288;4.572;2023-05-07T10:20:29;24.90;70.50
45104;DHT22;30865;51.288;4.572;2023-05-07T10:22:57;25.00;69.50
45104;DHT22;30865;51.288;4.572;2023-05-07T10:25:28;24.80;68.40
45104;DHT22;30865;51.288;4.572;2023-05-07T10:27:55;25.10;65.80
45104;DHT22;30865;51.288;4.572;2023-05-07T10:30:35;25.40;65.20
45104;DHT22;30865;51.288;4.572;2023-05-07T10:33:06;25.50;64.70
45104;DHT22;30865;51.288;4.572;2023-05-07T10:35:42;25.50;64.50
45104;DHT22;30865;51.288;4.572;2023-05-07T10:38:08;25.40;63.80
45104;DHT22;30865;51.288;4.572;2023-05-07T10:40:34;25.20;63.30
45104;DHT22;30865;51.288;4.572;2023-05-07T10:43:02;25.40;63.50
45104;DHT22;30865;51.288;4.572;2023-05-07T10:45:30;25.50;62.50
45104;DHT22;30865;51.288;4.572;2023-05-07T10:48:10;25.20;62.60
45104;DHT22;30865;51.288;4.572;2023-05-07T10:50:37;25.30;62.10
45104;DHT22;30865;51.288;4.572;2023-05-07T10:55:48;25.50;59.00
45104;DHT22;30865;51.288;4.572;2023-05-07T11:00:48;25.70;58.90
45104;DHT22;30865;51.288;4.572;2023-05-07T11:03:13;26.10;57.00
45104;DHT22;30865;51.288;4.572;2023-05-07T11:05:41;25.80;56.60
45104;DHT22;30865;51.288;4.572;2023-05-07T11:08:07;25.80;58.00
45104;DHT22;30865;51.288;4.572;2023-05-07T11:10:56;25.90;57.20
45104;DHT22;30865;51.288;4.572;2023-05-07T11:13:43;26.40;56.70
45104;DHT22;30865;51.288;4.572;2023-05-07T11:16:22;26.50;55.60
45104;DHT22;30865;51.288;4.572;2023-05-07T11:18:54;26.30;55.70
45104;DHT22;30865;51.288;4.572;2023-05-07T11:21:42;26.50;55.60
45104;DHT22;30865;51.288;4.572;2023-05-07T11:24:09;26.80;55.20
45104;DHT22;30865;51.288;4.572;2023-05-07T11:26:50;26.90;55.20
45104;DHT22;30865;51.288;4.572;2023-05-07T11:29:18;27.20;53.80
45104;DHT22;30865;51.288;4.572;2023-05-07T11:31:51;26.90;53.50
45104;DHT22;30865;51.288;4.572;2023-05-07T11:34:25;26.70;52.90
45104;DHT22;30865;51.288;4.572;2023-05-07T11:36:51;26.70;54.50
45104;DHT22;30865;51.288;4.572;2023-05-07T11:39:27;26.40;55.30
45104;DHT22;30865;51.288;4.572;2023-05-07T11:41:53;26.20;55.30
45104;DHT22;30865;51.288;4.572;2023-05-07T11:44:18;25.90;55.30
45104;DHT22;30865;51.288;4.572;2023-05-07T11:46:44;25.70;56.50
45104;DHT22;30865;51.288;4.572;2023-05-07T11:49:10;25.70;56.60
45104;DHT22;30865;51.288;4.572;2023-05-07T11:51:36;25.60;57.10
45104;DHT22;30865;51.288;4.572;2023-05-07T11:54:04;25.50;57.10
45104;DHT22;30865;51.288;4.572;2023-05-07T11:56:34;25.50;56.80
45104;DHT22;30865;51.288;4.572;2023-05-07T11:59:00;25.10;57.00
45104;DHT22;30865;51.288;4.572;2023-05-07T12:01:26;25.20;57.30
45104;DHT22;30865;51.288;4.572;2023-05-07T12:03:52;25.20;58.60
45104;DHT22;30865;51.288;4.572;2023-05-07T12:06:18;25.00;57.90
45104;DHT22;30865;51.288;4.572;2023-05-07T12:08:44;24.80;57.70
45104;DHT22;30865;51.288;4.572;2023-05-07T12:11:15;24.80;58.20
45104;DHT22;30865;51.288;4.572;2023-05-07T12:13:43;24.80;58.50
45104;DHT22;30865;51.288;4.572;2023-05-07T12:16:08;24.50;59.00
45104;DHT22;30865;51.288;4.572;2023-05-07T12:18:35;24.50;59.70
45104;DHT22;30865;51.288;4.572;2023-05-07T12:21:02;24.30;62.60
45104;DHT22;30865;51.288;4.572;2023-05-07T12:23:29;23.90;81.60
45104;DHT22;30865;51.288;4.572;2023-05-07T12:25:55;23.00;99.90
45104;DHT22;30865;51.288;4.572;2023-05-07T12:28:21;21.70;99.90
45104;DHT22;30865;51.288;4.572;2023-05-07T12:30:48;20.40;99.90
45104;DHT22;30865;51.288;4.572;2023-05-07T12:33:23;19.20;99.90
45104;DHT22;30865;51.288;4.572;2023-05-07T12:35:49;18.40;99.90
45104;DHT22;30865;51.288;4.572;2023-05-07T12:38:16;18.00;99.90
45104;DHT22;30865;51.288;4.572;2023-05-07T12:40:50;17.90;99.90
45104;DHT22;30865;51.288;4.572;2023-05-07T12:45:43;17.60;99.90
45104;DHT22;30865;51.288;4.572;2023-05-07T12:48:12;17.60;99.90
45104;DHT22;30865;51.288;4.572;2023-05-07T12:50:38;17.60;99.90
45104;DHT22;30865;51.288;4.572;2023-05-07T12:53:04;17.60;99.90
45104;DHT22;30865;51.288;4.572;2023-05-07T12:55:45;17.60;99.90
45104;DHT22;30865;51.288;4.572;2023-05-07T12:58:25;17.50;99.90
45104;DHT22;30865;51.288;4.572;2023-05-07T13:00:51;17.50;99.90
45104;DHT22;30865;51.288;4.572;2023-05-07T13:03:24;17.40;99.90
45104;DHT22;30865;51.288;4.572;2023-05-07T13:05:51;17.00;99.90
45104;DHT22;30865;51.288;4.572;2023-05-07T13:08:33;16.80;99.90
45104;DHT22;30865;51.288;4.572;2023-05-07T13:10:59;15.40;99.90
45104;DHT22;30865;51.288;4.572;2023-05-07T13:13:37;15.20;99.90
45104;DHT22;30865;51.288;4.572;2023-05-07T13:16:04;14.90;99.90
45104;DHT22;30865;51.288;4.572;2023-05-07T13:18:31;14.60;99.90
45104;DHT22;30865;51.288;4.572;2023-05-07T13:20:56;14.50;99.90
45104;DHT22;30865;51.288;4.572;2023-05-07T13:23:22;14.50;99.90
45104;DHT22;30865;51.288;4.572;2023-05-07T13:25:48;14.60;99.90
45104;DHT22;30865;51.288;4.572;2023-05-07T13:28:14;14.60;99.90
45104;DHT22;30865;51.288;4.572;2023-05-07T13:30:39;14.60;99.90
45104;DHT22;30865;51.288;4.572;2023-05-07T13:33:06;14.50;99.90
45104;DHT22;30865;51.288;4.572;2023-05-07T13:35:32;14.60;99.90
45104;DHT22;30865;51.288;4.572;2023-05-07T13:37:58;14.60;99.90
45104;DHT22;30865;51.288;4.572;2023-05-07T13:40:23;14.60;99.90
45104;DHT22;30865;51.288;4.572;2023-05-07T13:42:49;14.60;99.90
45104;DHT22;30865;51.288;4.572;2023-05-07T13:45:15;14.50;99.90
45104;DHT22;30865;51.288;4.572;2023-05-07T13:47:41;14.40;99.90
45104;DHT22;30865;51.288;4.572;2023-05-07T13:50:08;14.80;99.90
45104;DHT22;30865;51.288;4.572;2023-05-07T13:52:34;14.50;99.90
45104;DHT22;30865;51.288;4.572;2023-05-07T13:55:00;14.50;99.90
45104;DHT22;30865;51.288;4.572;2023-05-07T13:57:25;14.50;99.90
45104;DHT22;30865;51.288;4.572;2023-05-07T13:59:51;14.50;99.90
45104;DHT22;30865;51.288;4.572;2023-05-07T14:02:16;14.40;99.90
45104;DHT22;30865;51.288;4.572;2023-05-07T14:04:42;14.50;99.90
45104;DHT22;30865;51.288;4.572;2023-05-07T14:07:08;14.50;99.90
45104;DHT22;30865;51.288;4.572;2023-05-07T14:09:33;14.60;99.90
45104;DHT22;30865;51.288;4.572;2023-05-07T14:11:59;14.90;99.90
45104;DHT22;30865;51.288;4.572;2023-05-07T14:14:25;15.00;99.90
45104;DHT22;30865;51.288;4.572;2023-05-07T14:16:51;15.00;99.90
45104;DHT22;30865;51.288;4.572;2023-05-07T14:19:16;15.00;99.90
45104;DHT22;30865;51.288;4.572;2023-05-07T14:21:41;15.00;99.90
45104;DHT22;30865;51.288;4.572;2023-05-07T14:24:07;15.00;99.90
45104;DHT22;30865;51.288;4.572;2023-05-07T14:26:36;15.10;99.90
45104;DHT22;30865;51.288;4.572;2023-05-07T14:29:02;15.20;99.90
45104;DHT22;30865;51.288;4.572;2023-05-07T14:31:28;15.20;99.90
45104;DHT22;30865;51.288;4.572;2023-05-07T14:33:54;15.20;99.90
45104;DHT22;30865;51.288;4.572;2023-05-07T14:36:19;15.10;99.90
45104;DHT22;30865;51.288;4.572;2023-05-07T14:38:46;15.20;99.90
45104;DHT22;30865;51.288;4.572;2023-05-07T14:41:12;15.30;99.90
45104;DHT22;30865;51.288;4.572;2023-05-07T14:43:37;15.20;99.90
45104;DHT22;30865;51.288;4.572;2023-05-07T14:46:03;15.20;99.90
45104;DHT22;30865;51.288;4.572;2023-05-07T14:48:28;15.20;99.90
45104;DHT22;30865;51.288;4.572;2023-05-07T14:50:54;15.20;99.90
45104;DHT22;30865;51.288;4.572;2023-05-07T14:53:20;15.30;99.90
45104;DHT22;30865;51.288;4.572;2023-05-07T14:55:46;15.20;99.90
45104;DHT22;30865;51.288;4.572;2023-05-07T14:58:12;15.20;99.90
45104;DHT22;30865;51.288;4.572;2023-05-07T15:00:37;15.20;99.90
45104;DHT22;30865;51.288;4.572;2023-05-07T15:03:06;15.20;99.90
45104;DHT22;30865;51.288;4.572;2023-05-07T15:05:32;15.20;99.90
45104;DHT22;30865;51.288;4.572;2023-05-07T15:07:58;15.30;99.90
45104;DHT22;30865;51.288;4.572;2023-05-07T15:10:23;15.30;99.90
45104;DHT22;30865;51.288;4.572;2023-05-07T15:12:49;15.40;99.90
45104;DHT22;30865;51.288;4.572;2023-05-07T15:15:14;15.40;99.90
45104;DHT22;30865;51.288;4.572;2023-05-07T15:17:40;15.40;99.90
45104;DHT22;30865;51.288;4.572;2023-05-07T15:20:06;15.50;99.90
45104;DHT22;30865;51.288;4.572;2023-05-07T15:22:32;15.40;99.90
45104;DHT22;30865;51.288;4.572;2023-05-07T15:24:58;15.50;99.90
45104;DHT22;30865;51.288;4.572;2023-05-07T15:27:24;15.60;99.90
45104;DHT22;30865;51.288;4.572;2023-05-07T15:29:49;15.60;99.90
45104;DHT22;30865;51.288;4.572;2023-05-07T15:32:15;15.80;99.90
45104;DHT22;30865;51.288;4.572;2023-05-07T15:34:40;15.80;99.90
45104;DHT22;30865;51.288;4.572;2023-05-07T15:37:06;16.10;99.90